sensor_id;sensor_type;location;lat;lon;timestamp;temperature;humidity
38183;DHT22;23991;52.430;10.586;2023-05-13T00:00:45;15.60;57.30
38183;DHT22;23991;52.430;10.586;2023-05-13T00:03:11;15.60;57.50
38183;DHT22;23991;52.430;10.586;2023-05-13T00:05:37;15.50;57.40
38183;DHT22;23991;52.430;10.586;2023-05-13T00:08:02;15.40;57.80
38183;DHT22;23991;52.430;10.586;2023-05-13T00:10:32;15.40;57.20
38183;DHT22;23991;52.430;10.586;2023-05-13T00:12:58;15.30;57.90
38183;DHT22;23991;52.430;10.586;2023-05-13T00:15:23;15.30;58.10
38183;DHT22;23991;52.430;10.586;2023-05-13T00:17:49;15.30;58.10
38183;DHT22;23991;52.430;10.586;2023-05-13T00:20:14;15.30;58.10
38183;DHT22;23991;52.430;10.586;2023-05-13T00:22:40;15.30;58.10
38183;DHT22;23991;52.430;10.586;2023-05-13T00:25:06;15.20;57.70
38183;DHT22;23991;52.430;10.586;2023-05-13T00:27:32;15.20;58.30
38183;DHT22;23991;52.430;10.586;2023-05-13T00:29:58;15.10;57.60
38183;DHT22;23991;52.430;10.586;2023-05-13T00:32:24;15.10;57.60
38183;DHT22;23991;52.430;10.586;2023-05-13T00:34:50;15.10;57.70
38183;DHT22;23991;52.430;10.586;2023-05-13T00:37:15;15.00;57.40
38183;DHT22;23991;52.430;10.586;2023-05-13T00:39:41;15.00;56.90
38183;DHT22;23991;52.430;10.586;2023-05-13T00:42:06;14.90;56.80
38183;DHT22;23991;52.430;10.586;2023-05-13T00:44:35;15.00;56.70
38183;DHT22;23991;52.430;10.586;2023-05-13T00:47:01;14.80;57.10
38183;DHT22;23991;52.430;10.586;2023-05-13T00:49:26;14.80;57.40
38183;DHT22;23991;52.430;10.586;2023-05-13T00:51:52;14.80;57.50
38183;DHT22;23991;52.430;10.586;2023-05-13T00:54:19;14.80;57.90
38183;DHT22;23991;52.430;10.586;2023-05-13T00:56:44;14.80;58.10
38183;DHT22;23991;52.430;10.586;2023-05-13T00:59:10;14.70;57.90
38183;DHT22;23991;52.430;10.586;2023-05-13T01:04:41;14.60;58.60
38183;DHT22;23991;52.430;10.586;2023-05-13T01:12:40;14.40;58.50
38183;DHT22;23991;52.430;10.586;2023-05-13T01:15:10;14.40;58.90
38183;DHT22;23991;52.430;10.586;2023-05-13T01:17:43;14.40;59.00
38183;DHT22;23991;52.430;10.586;2023-05-13T01:20:11;14.40;59.10
38183;DHT22;23991;52.430;10.586;2023-05-13T01:22:37;14.30;59.60
38183;DHT22;23991;52.430;10.586;2023-05-13T01:25:03;14.30;59.60
38183;DHT22;23991;52.430;10.586;2023-05-13T01:27:29;14.30;60.10
38183;DHT22;23991;52.430;10.586;2023-05-13T01:29:54;14.30;60.10
38183;DHT22;23991;52.430;10.586;2023-05-13T01:32:21;14.20;60.00
38183;DHT22;23991;52.430;10.586;2023-05-13T01:34:48;14.10;60.40
38183;DHT22;23991;52.430;10.586;2023-05-13T01:37:15;14.10;60.70
38183;DHT22;23991;52.430;10.586;2023-05-13T01:39:41;14.10;60.50
38183;DHT22;23991;52.430;10.586;2023-05-13T01:42:07;14.00;60.90
38183;DHT22;23991;52.430;10.586;2023-05-13T01:44:32;14.00;60.80
38183;DHT22;23991;52.430;10.586;2023-05-13T01:46:58;14.00;60.90
38183;DHT22;23991;52.430;10.586;2023-05-13T01:49:23;13.90;61.00
38183;DHT22;23991;52.430;10.586;2023-05-13T01:51:50;13.90;60.90
38183;DHT22;23991;52.430;10.586;2023-05-13T01:54:15;13.80;61.40
38183;DHT22;23991;52.430;10.586;2023-05-13T01:56:41;13.80;61.20
38183;DHT22;23991;52.430;10.586;2023-05-13T01:59:08;13.80;61.10
38183;DHT22;23991;52.430;10.586;2023-05-13T02:01:34;13.80;61.90
38183;DHT22;23991;52.430;10.586;2023-05-13T02:04:01;13.80;61.60
38183;DHT22;23991;52.430;10.586;2023-05-13T02:06:26;13.80;62.20
38183;DHT22;23991;52.430;10.586;2023-05-13T02:08:52;13.70;61.80
38183;DHT22;23991;52.430;10.586;2023-05-13T02:11:18;13.70;62.00
38183;DHT22;23991;52.430;10.586;2023-05-13T02:13:44;13.60;62.00
38183;DHT22;23991;52.430;10.586;2023-05-13T02:16:13;13.60;62.60
38183;DHT22;23991;52.430;10.586;2023-05-13T02:18:39;13.60;62.50
38183;DHT22;23991;52.430;10.586;2023-05-13T02:21:05;13.50;63.00
38183;DHT22;23991;52.430;10.586;2023-05-13T02:23:30;13.50;63.30
38183;DHT22;23991;52.430;10.586;2023-05-13T02:25:56;13.40;63.70
38183;DHT22;23991;52.430;10.586;2023-05-13T02:28:21;13.40;63.50
38183;DHT22;23991;52.430;10.586;2023-05-13T02:30:47;13.30;63.70
38183;DHT22;23991;52.430;10.586;2023-05-13T02:33:12;13.40;64.10
38183;DHT22;23991;52.430;10.586;2023-05-13T02:35:38;13.30;64.00
38183;DHT22;23991;52.430;10.586;2023-05-13T02:38:03;13.30;64.10
38183;DHT22;23991;52.430;10.586;2023-05-13T02:40:29;13.30;64.20
38183;DHT22;23991;52.430;10.586;2023-05-13T02:42:55;13.30;63.90
38183;DHT22;23991;52.430;10.586;2023-05-13T02:45:20;13.30;64.00
38183;DHT22;23991;52.430;10.586;2023-05-13T02:47:46;13.30;64.40
38183;DHT22;23991;52.430;10.586;2023-05-13T02:50:11;13.30;64.30
38183;DHT22;23991;52.430;10.586;2023-05-13T02:52:37;13.20;64.70
38183;DHT22;23991;52.430;10.586;2023-05-13T02:55:05;13.20;64.80
38183;DHT22;23991;52.430;10.586;2023-05-13T02:57:31;13.20;65.00
38183;DHT22;23991;52.430;10.586;2023-05-13T02:59:57;13.20;65.10
38183;DHT22;23991;52.430;10.586;2023-05-13T03:02:22;13.20;65.00
38183;DHT22;23991;52.430;10.586;2023-05-13T03:04:48;13.10;65.00
38183;DHT22;23991;52.430;10.586;2023-05-13T03:07:13;13.10;65.30
38183;DHT22;23991;52.430;10.586;2023-05-13T03:09:39;13.10;64.90
38183;DHT22;23991;52.430;10.586;2023-05-13T03:12:07;13.00;65.30
38183;DHT22;23991;52.430;10.586;2023-05-13T03:14:33;12.90;65.30
38183;DHT22;23991;52.430;10.586;2023-05-13T03:17:01;12.90;65.00
38183;DHT22;23991;52.430;10.586;2023-05-13T03:19:26;12.90;65.10
38183;DHT22;23991;52.430;10.586;2023-05-13T03:21:52;13.00;64.90
38183;DHT22;23991;52.430;10.586;2023-05-13T03:24:17;12.90;65.30
38183;DHT22;23991;52.430;10.586;2023-05-13T03:26:43;12.90;64.90
38183;DHT22;23991;52.430;10.586;2023-05-13T03:29:09;12.90;64.70
38183;DHT22;23991;52.430;10.586;2023-05-13T03:31:34;12.80;65.00
38183;DHT22;23991;52.430;10.586;2023-05-13T03:34:00;12.80;65.30
38183;DHT22;23991;52.430;10.586;2023-05-13T03:36:25;12.80;65.30
38183;DHT22;23991;52.430;10.586;2023-05-13T03:38:51;12.70;65.20
38183;DHT22;23991;52.430;10.586;2023-05-13T03:41:16;12.70;65.10
38183;DHT22;23991;52.430;10.586;2023-05-13T03:43:42;12.70;65.50
38183;DHT22;23991;52.430;10.586;2023-05-13T03:46:09;12.60;65.30
38183;DHT22;23991;52.430;10.586;2023-05-13T03:48:34;12.60;65.20
38183;DHT22;23991;52.430;10.586;2023-05-13T03:51:00;12.60;65.40
38183;DHT22;23991;52.430;10.586;2023-05-13T03:53:26;12.60;65.50
38183;DHT22;23991;52.430;10.586;2023-05-13T03:55:52;12.70;65.30
38183;DHT22;23991;52.430;10.586;2023-05-13T03:58:17;12.70;65.50
38183;DHT22;23991;52.430;10.586;2023-05-13T04:00:43;12.70;65.60
38183;DHT22;23991;52.430;10.586;2023-05-13T04:03:13;12.70;65.40
38183;DHT22;23991;52.430;10.586;2023-05-13T04:05:40;12.80;64.80
38183;DHT22;23991;52.430;10.586;2023-05-13T04:08:06;12.80;65.00
38183;DHT22;23991;52.430;10.586;2023-05-13T04:10:31;12.80;64.90
38183;DHT22;23991;52.430;10.586;2023-05-13T04:12:57;12.80;64.60
38183;DHT22;23991;52.430;10.586;2023-05-13T04:15:22;12.90;64.80
38183;DHT22;23991;52.430;10.586;2023-05-13T04:17:48;12.90;65.00
38183;DHT22;23991;52.430;10.586;2023-05-13T04:20:14;13.00;65.00
38183;DHT22;23991;52.430;10.586;2023-05-13T04:22:39;13.00;64.60
38183;DHT22;23991;52.430;10.586;2023-05-13T04:25:05;13.00;64.30
38183;DHT22;23991;52.430;10.586;2023-05-13T04:27:30;13.10;64.00
38183;DHT22;23991;52.430;10.586;2023-05-13T04:29:56;13.30;64.10
38183;DHT22;23991;52.430;10.586;2023-05-13T04:32:21;13.30;64.40
38183;DHT22;23991;52.430;10.586;2023-05-13T04:34:47;13.40;64.30
38183;DHT22;23991;52.430;10.586;2023-05-13T04:37:13;13.50;63.90
38183;DHT22;23991;52.430;10.586;2023-05-13T04:39:38;13.60;63.50
38183;DHT22;23991;52.430;10.586;2023-05-13T04:42:04;13.80;63.80
38183;DHT22;23991;52.430;10.586;2023-05-13T04:44:30;13.80;62.60
38183;DHT22;23991;52.430;10.586;2023-05-13T04:46:56;13.90;61.70
38183;DHT22;23991;52.430;10.586;2023-05-13T04:49:22;14.10;61.70
38183;DHT22;23991;52.430;10.586;2023-05-13T04:51:47;14.10;62.20
38183;DHT22;23991;52.430;10.586;2023-05-13T04:54:13;14.30;61.10
38183;DHT22;23991;52.430;10.586;2023-05-13T04:56:38;14.30;60.90
38183;DHT22;23991;52.430;10.586;2023-05-13T04:59:04;14.40;61.20
38183;DHT22;23991;52.430;10.586;2023-05-13T05:01:29;14.40;60.80
38183;DHT22;23991;52.430;10.586;2023-05-13T05:03:57;14.60;59.90
38183;DHT22;23991;52.430;10.586;2023-05-13T05:06:22;14.70;59.70
38183;DHT22;23991;52.430;10.586;2023-05-13T05:08:48;14.80;59.20
38183;DHT22;23991;52.430;10.586;2023-05-13T05:11:13;14.80;58.20
38183;DHT22;23991;52.430;10.586;2023-05-13T05:13:39;14.80;58.40
38183;DHT22;23991;52.430;10.586;2023-05-13T05:16:05;14.90;58.40
38183;DHT22;23991;52.430;10.586;2023-05-13T05:18:31;15.10;58.50
38183;DHT22;23991;52.430;10.586;2023-05-13T05:20:56;15.20;58.60
38183;DHT22;23991;52.430;10.586;2023-05-13T05:23:22;15.30;57.40
38183;DHT22;23991;52.430;10.586;2023-05-13T05:25:47;15.40;57.40
38183;DHT22;23991;52.430;10.586;2023-05-13T05:28:13;15.50;57.40
38183;DHT22;23991;52.430;10.586;2023-05-13T05:30:38;15.60;57.00
38183;DHT22;23991;52.430;10.586;2023-05-13T05:33:05;15.60;56.90
38183;DHT22;23991;52.430;10.586;2023-05-13T05:35:31;15.70;57.10
38183;DHT22;23991;52.430;10.586;2023-05-13T05:37:58;15.80;57.70
38183;DHT22;23991;52.430;10.586;2023-05-13T05:40:23;15.90;57.50
38183;DHT22;23991;52.430;10.586;2023-05-13T05:42:49;16.20;57.00
38183;DHT22;23991;52.430;10.586;2023-05-13T05:45:15;16.30;56.30
38183;DHT22;23991;52.430;10.586;2023-05-13T05:47:40;16.60;54.60
38183;DHT22;23991;52.430;10.586;2023-05-13T05:50:06;16.90;52.80
38183;DHT22;23991;52.430;10.586;2023-05-13T05:52:32;17.10;52.80
38183;DHT22;23991;52.430;10.586;2023-05-13T05:54:57;17.00;53.10
38183;DHT22;23991;52.430;10.586;2023-05-13T05:57:23;17.10;52.60
38183;DHT22;23991;52.430;10.586;2023-05-13T05:59:49;17.30;51.40
38183;DHT22;23991;52.430;10.586;2023-05-13T06:02:15;17.30;50.70
38183;DHT22;23991;52.430;10.586;2023-05-13T06:04:40;17.50;50.40
38183;DHT22;23991;52.430;10.586;2023-05-13T06:07:06;17.50;50.60
38183;DHT22;23991;52.430;10.586;2023-05-13T06:09:32;17.70;50.00
38183;DHT22;23991;52.430;10.586;2023-05-13T06:11:58;17.90;50.10
38183;DHT22;23991;52.430;10.586;2023-05-13T06:14:23;18.00;49.10
38183;DHT22;23991;52.430;10.586;2023-05-13T06:16:49;18.20;48.50
38183;DHT22;23991;52.430;10.586;2023-05-13T06:19:14;18.30;48.40
38183;DHT22;23991;52.430;10.586;2023-05-13T06:21:40;18.40;48.70
38183;DHT22;23991;52.430;10.586;2023-05-13T06:24:08;18.70;48.50
38183;DHT22;23991;52.430;10.586;2023-05-13T06:26:33;18.80;47.30
38183;DHT22;23991;52.430;10.586;2023-05-13T06:28:59;18.90;46.70
38183;DHT22;23991;52.430;10.586;2023-05-13T06:31:25;19.20;46.20
38183;DHT22;23991;52.430;10.586;2023-05-13T06:33:51;19.30;46.60
38183;DHT22;23991;52.430;10.586;2023-05-13T06:36:16;19.40;46.30
38183;DHT22;23991;52.430;10.586;2023-05-13T06:38:42;19.50;45.50
38183;DHT22;23991;52.430;10.586;2023-05-13T06:41:07;19.70;45.90
38183;DHT22;23991;52.430;10.586;2023-05-13T06:43:33;19.70;45.30
38183;DHT22;23991;52.430;10.586;2023-05-13T06:45:58;19.70;45.60
38183;DHT22;23991;52.430;10.586;2023-05-13T06:48:24;20.00;44.80
38183;DHT22;23991;52.430;10.586;2023-05-13T06:50:49;20.00;45.00
38183;DHT22;23991;52.430;10.586;2023-05-13T06:53:15;20.20;44.30
38183;DHT22;23991;52.430;10.586;2023-05-13T06:55:41;20.30;44.00
38183;DHT22;23991;52.430;10.586;2023-05-13T06:58:07;20.50;44.00
38183;DHT22;23991;52.430;10.586;2023-05-13T07:00:37;20.50;44.00
38183;DHT22;23991;52.430;10.586;2023-05-13T07:03:04;20.90;44.00
38183;DHT22;23991;52.430;10.586;2023-05-13T07:05:33;21.30;43.10
38183;DHT22;23991;52.430;10.586;2023-05-13T07:07:59;21.70;42.10
38183;DHT22;23991;52.430;10.586;2023-05-13T07:10:26;21.90;41.60
38183;DHT22;23991;52.430;10.586;2023-05-13T07:12:51;22.20;41.00
38183;DHT22;23991;52.430;10.586;2023-05-13T07:15:17;22.40;41.00
38183;DHT22;23991;52.430;10.586;2023-05-13T07:17:42;22.70;40.40
38183;DHT22;23991;52.430;10.586;2023-05-13T07:20:08;22.90;39.70
38183;DHT22;23991;52.430;10.586;2023-05-13T07:22:34;23.00;39.80
38183;DHT22;23991;52.430;10.586;2023-05-13T07:25:00;23.50;38.50
38183;DHT22;23991;52.430;10.586;2023-05-13T07:27:26;23.70;38.00
38183;DHT22;23991;52.430;10.586;2023-05-13T07:29:51;23.80;37.20
38183;DHT22;23991;52.430;10.586;2023-05-13T07:32:17;24.10;36.90
38183;DHT22;23991;52.430;10.586;2023-05-13T07:34:43;24.30;36.90
38183;DHT22;23991;52.430;10.586;2023-05-13T07:37:08;24.60;36.20
38183;DHT22;23991;52.430;10.586;2023-05-13T07:39:34;24.70;36.10
38183;DHT22;23991;52.430;10.586;2023-05-13T07:42:00;24.80;35.80
38183;DHT22;23991;52.430;10.586;2023-05-13T07:44:25;25.00;35.80
38183;DHT22;23991;52.430;10.586;2023-05-13T07:46:51;25.30;35.40
38183;DHT22;23991;52.430;10.586;2023-05-13T07:49:18;25.50;35.00
38183;DHT22;23991;52.430;10.586;2023-05-13T07:51:44;25.80;34.10
38183;DHT22;23991;52.430;10.586;2023-05-13T07:54:09;26.00;34.40
38183;DHT22;23991;52.430;10.586;2023-05-13T07:56:35;26.30;33.70
38183;DHT22;23991;52.430;10.586;2023-05-13T07:59:02;26.50;33.60
38183;DHT22;23991;52.430;10.586;2023-05-13T08:01:28;26.70;33.10
38183;DHT22;23991;52.430;10.586;2023-05-13T08:03:54;26.80;32.70
38183;DHT22;23991;52.430;10.586;2023-05-13T08:06:19;27.10;31.80
38183;DHT22;23991;52.430;10.586;2023-05-13T08:08:45;27.40;31.50
38183;DHT22;23991;52.430;10.586;2023-05-13T08:11:10;27.70;31.10
38183;DHT22;23991;52.430;10.586;2023-05-13T08:13:36;28.00;31.10
38183;DHT22;23991;52.430;10.586;2023-05-13T08:16:03;28.30;29.90
38183;DHT22;23991;52.430;10.586;2023-05-13T08:18:28;28.50;30.10
38183;DHT22;23991;52.430;10.586;2023-05-13T08:20:54;28.50;30.60
38183;DHT22;23991;52.430;10.586;2023-05-13T08:23:20;29.00;29.40
38183;DHT22;23991;52.430;10.586;2023-05-13T08:25:45;29.30;29.50
38183;DHT22;23991;52.430;10.586;2023-05-13T08:28:10;29.50;29.30
38183;DHT22;23991;52.430;10.586;2023-05-13T08:30:36;29.70;28.80
38183;DHT22;23991;52.430;10.586;2023-05-13T08:33:04;29.80;28.70
38183;DHT22;23991;52.430;10.586;2023-05-13T08:35:30;30.10;28.40
38183;DHT22;23991;52.430;10.586;2023-05-13T08:37:56;30.40;28.20
38183;DHT22;23991;52.430;10.586;2023-05-13T08:40:22;30.50;27.30
38183;DHT22;23991;52.430;10.586;2023-05-13T08:42:49;30.70;27.50
38183;DHT22;23991;52.430;10.586;2023-05-13T08:45:20;30.90;26.20
38183;DHT22;23991;52.430;10.586;2023-05-13T08:47:59;30.80;26.70
38183;DHT22;23991;52.430;10.586;2023-05-13T08:50:27;31.20;26.20
38183;DHT22;23991;52.430;10.586;2023-05-13T08:52:53;31.20;26.30
38183;DHT22;23991;52.430;10.586;2023-05-13T08:55:19;31.30;26.00
38183;DHT22;23991;52.430;10.586;2023-05-13T08:57:44;31.70;25.50
38183;DHT22;23991;52.430;10.586;2023-05-13T09:00:10;31.90;25.50
38183;DHT22;23991;52.430;10.586;2023-05-13T09:02:36;32.10;25.30
38183;DHT22;23991;52.430;10.586;2023-05-13T09:05:06;32.30;24.80
38183;DHT22;23991;52.430;10.586;2023-05-13T09:07:32;32.60;24.50
38183;DHT22;23991;52.430;10.586;2023-05-13T09:09:58;32.40;24.50
38183;DHT22;23991;52.430;10.586;2023-05-13T09:13:02;32.50;24.60
38183;DHT22;23991;52.430;10.586;2023-05-13T09:15:31;33.00;23.70
38183;DHT22;23991;52.430;10.586;2023-05-13T09:18:04;33.30;23.70
38183;DHT22;23991;52.430;10.586;2023-05-13T09:20:31;33.50;22.90
38183;DHT22;23991;52.430;10.586;2023-05-13T09:23:03;33.40;23.10
38183;DHT22;23991;52.430;10.586;2023-05-13T09:25:31;33.90;22.40
38183;DHT22;23991;52.430;10.586;2023-05-13T09:28:01;34.00;21.60
38183;DHT22;23991;52.430;10.586;2023-05-13T09:30:39;34.30;21.10
38183;DHT22;23991;52.430;10.586;2023-05-13T09:35:31;34.20;20.70
38183;DHT22;23991;52.430;10.586;2023-05-13T09:37:57;34.30;20.90
38183;DHT22;23991;52.430;10.586;2023-05-13T09:40:23;34.20;21.70
38183;DHT22;23991;52.430;10.586;2023-05-13T09:42:49;34.70;20.50
38183;DHT22;23991;52.430;10.586;2023-05-13T09:45:15;34.90;20.90
38183;DHT22;23991;52.430;10.586;2023-05-13T09:47:41;35.40;20.90
38183;DHT22;23991;52.430;10.586;2023-05-13T09:50:09;35.70;20.30
38183;DHT22;23991;52.430;10.586;2023-05-13T09:52:37;35.70;21.00
38183;DHT22;23991;52.430;10.586;2023-05-13T09:55:03;36.10;20.10
38183;DHT22;23991;52.430;10.586;2023-05-13T09:57:33;36.30;20.10
38183;DHT22;23991;52.430;10.586;2023-05-13T10:00:00;36.50;19.40
38183;DHT22;23991;52.430;10.586;2023-05-13T10:02:26;36.50;19.10
38183;DHT22;23991;52.430;10.586;2023-05-13T10:04:53;36.70;18.50
38183;DHT22;23991;52.430;10.586;2023-05-13T10:07:23;36.90;18.40
38183;DHT22;23991;52.430;10.586;2023-05-13T10:10:00;36.90;17.80
38183;DHT22;23991;52.430;10.586;2023-05-13T10:12:27;37.00;18.60
38183;DHT22;23991;52.430;10.586;2023-05-13T10:14:54;36.70;18.00
38183;DHT22;23991;52.430;10.586;2023-05-13T10:17:21;36.70;17.70
38183;DHT22;23991;52.430;10.586;2023-05-13T10:19:52;36.80;17.40
38183;DHT22;23991;52.430;10.586;2023-05-13T10:22:31;36.20;17.20
38183;DHT22;23991;52.430;10.586;2023-05-13T10:24:59;36.50;18.10
38183;DHT22;23991;52.430;10.586;2023-05-13T10:27:29;36.60;17.50
38183;DHT22;23991;52.430;10.586;2023-05-13T10:29:56;36.90;17.50
38183;DHT22;23991;52.430;10.586;2023-05-13T10:32:24;36.70;16.90
38183;DHT22;23991;52.430;10.586;2023-05-13T10:34:55;36.80;16.30
38183;DHT22;23991;52.430;10.586;2023-05-13T10:43:17;37.30;16.10
38183;DHT22;23991;52.430;10.586;2023-05-13T10:45:45;37.40;16.10
38183;DHT22;23991;52.430;10.586;2023-05-13T10:48:12;37.70;15.80
38183;DHT22;23991;52.430;10.586;2023-05-13T10:50:38;37.70;15.20
38183;DHT22;23991;52.430;10.586;2023-05-13T10:53:21;37.70;15.20
38183;DHT22;23991;52.430;10.586;2023-05-13T10:55:51;37.90;15.40
38183;DHT22;23991;52.430;10.586;2023-05-13T10:58:17;38.10;15.30
38183;DHT22;23991;52.430;10.586;2023-05-13T11:00:46;38.10;16.20
38183;DHT22;23991;52.430;10.586;2023-05-13T11:06:03;36.80;16.10
38183;DHT22;23991;52.430;10.586;2023-05-13T11:08:46;36.70;15.80
38183;DHT22;23991;52.430;10.586;2023-05-13T11:14:07;37.00;15.70
38183;DHT22;23991;52.430;10.586;2023-05-13T11:16:36;37.20;15.20
38183;DHT22;23991;52.430;10.586;2023-05-13T11:19:03;37.60;15.10
38183;DHT22;23991;52.430;10.586;2023-05-13T11:21:30;37.70;14.70
38183;DHT22;23991;52.430;10.586;2023-05-13T11:23:59;38.10;14.40
38183;DHT22;23991;52.430;10.586;2023-05-13T11:26:25;38.00;14.40
38183;DHT22;23991;52.430;10.586;2023-05-13T11:29:04;38.20;14.50
38183;DHT22;23991;52.430;10.586;2023-05-13T11:31:50;38.30;14.40
38183;DHT22;23991;52.430;10.586;2023-05-13T11:34:21;38.30;14.20
38183;DHT22;23991;52.430;10.586;2023-05-13T11:37:05;38.40;13.80
38183;DHT22;23991;52.430;10.586;2023-05-13T11:39:32;38.10;14.40
38183;DHT22;23991;52.430;10.586;2023-05-13T11:41:58;37.80;14.70
38183;DHT22;23991;52.430;10.586;2023-05-13T11:44:26;38.10;14.60
38183;DHT22;23991;52.430;10.586;2023-05-13T11:46:56;37.90;14.20
38183;DHT22;23991;52.430;10.586;2023-05-13T11:49:33;37.90;14.40
38183;DHT22;23991;52.430;10.586;2023-05-13T11:54:52;38.30;13.70
38183;DHT22;23991;52.430;10.586;2023-05-13T11:57:26;37.90;14.50
38183;DHT22;23991;52.430;10.586;2023-05-13T12:00:03;38.20;14.70
38183;DHT22;23991;52.430;10.586;2023-05-13T12:02:31;38.40;14.00
38183;DHT22;23991;52.430;10.586;2023-05-13T12:05:00;38.30;14.30
38183;DHT22;23991;52.430;10.586;2023-05-13T12:07:26;38.60;14.00
38183;DHT22;23991;52.430;10.586;2023-05-13T12:09:55;38.90;13.20
38183;DHT22;23991;52.430;10.586;2023-05-13T12:12:21;38.50;12.80
38183;DHT22;23991;52.430;10.586;2023-05-13T12:14:48;38.30;12.70
38183;DHT22;23991;52.430;10.586;2023-05-13T12:17:18;38.30;12.60
38183;DHT22;23991;52.430;10.586;2023-05-13T12:22:28;38.30;13.20
38183;DHT22;23991;52.430;10.586;2023-05-13T12:24:54;38.50;13.50
38183;DHT22;23991;52.430;10.586;2023-05-13T12:27:20;38.60;13.80
38183;DHT22;23991;52.430;10.586;2023-05-13T12:29:45;38.40;12.70
38183;DHT22;23991;52.430;10.586;2023-05-13T12:32:15;38.40;12.80
38183;DHT22;23991;52.430;10.586;2023-05-13T12:34:47;38.70;12.90
38183;DHT22;23991;52.430;10.586;2023-05-13T12:37:13;38.80;12.60
38183;DHT22;23991;52.430;10.586;2023-05-13T12:39:42;38.50;12.80
38183;DHT22;23991;52.430;10.586;2023-05-13T12:42:17;38.40;13.30
38183;DHT22;23991;52.430;10.586;2023-05-13T12:44:44;38.60;13.00
38183;DHT22;23991;52.430;10.586;2023-05-13T12:47:10;38.70;12.80
38183;DHT22;23991;52.430;10.586;2023-05-13T12:49:54;38.30;12.40
38183;DHT22;23991;52.430;10.586;2023-05-13T12:52:21;38.50;13.10
38183;DHT22;23991;52.430;10.586;2023-05-13T12:54:47;38.70;13.30
38183;DHT22;23991;52.430;10.586;2023-05-13T12:57:15;38.70;13.00
38183;DHT22;23991;52.430;10.586;2023-05-13T12:59:41;38.80;13.10
38183;DHT22;23991;52.430;10.586;2023-05-13T13:02:07;38.60;13.00
38183;DHT22;23991;52.430;10.586;2023-05-13T13:04:32;38.30;12.90
38183;DHT22;23991;52.430;10.586;2023-05-13T13:06:58;38.60;12.90
38183;DHT22;23991;52.430;10.586;2023-05-13T13:09:23;38.90;13.40
38183;DHT22;23991;52.430;10.586;2023-05-13T13:11:49;39.10;13.20
38183;DHT22;23991;52.430;10.586;2023-05-13T13:14:15;39.10;13.20
38183;DHT22;23991;52.430;10.586;2023-05-13T13:27:49;38.00;13.70
38183;DHT22;23991;52.430;10.586;2023-05-13T13:30:15;38.10;13.50
38183;DHT22;23991;52.430;10.586;2023-05-13T13:32:40;38.10;14.00
38183;DHT22;23991;52.430;10.586;2023-05-13T13:35:06;37.90;13.60
38183;DHT22;23991;52.430;10.586;2023-05-13T13:37:32;37.70;13.60
38183;DHT22;23991;52.430;10.586;2023-05-13T13:40:00;37.40;14.00
38183;DHT22;23991;52.430;10.586;2023-05-13T13:42:26;37.20;13.70
38183;DHT22;23991;52.430;10.586;2023-05-13T13:44:51;37.30;13.70
38183;DHT22;23991;52.430;10.586;2023-05-13T13:47:17;37.60;13.70
38183;DHT22;23991;52.430;10.586;2023-05-13T13:49:43;37.70;13.60
38183;DHT22;23991;52.430;10.586;2023-05-13T13:52:08;37.70;13.40
38183;DHT22;23991;52.430;10.586;2023-05-13T13:54:34;38.00;13.50
38183;DHT22;23991;52.430;10.586;2023-05-13T13:57:00;38.10;13.30
38183;DHT22;23991;52.430;10.586;2023-05-13T13:59:26;38.10;13.60
38183;DHT22;23991;52.430;10.586;2023-05-13T14:01:51;38.10;13.10
38183;DHT22;23991;52.430;10.586;2023-05-13T14:04:18;38.30;13.10
38183;DHT22;23991;52.430;10.586;2023-05-13T14:06:47;38.00;13.00
38183;DHT22;23991;52.430;10.586;2023-05-13T14:09:12;37.60;13.10
38183;DHT22;23991;52.430;10.586;2023-05-13T14:11:38;37.40;13.30
38183;DHT22;23991;52.430;10.586;2023-05-13T14:14:03;37.20;13.30
38183;DHT22;23991;52.430;10.586;2023-05-13T14:16:29;37.40;13.70
38183;DHT22;23991;52.430;10.586;2023-05-13T14:18:55;37.90;13.20
38183;DHT22;23991;52.430;10.586;2023-05-13T14:21:20;38.10;13.10
38183;DHT22;23991;52.430;10.586;2023-05-13T14:23:46;37.80;13.30
38183;DHT22;23991;52.430;10.586;2023-05-13T14:26:12;37.90;13.50
38183;DHT22;23991;52.430;10.586;2023-05-13T14:28:40;37.70;13.80
38183;DHT22;23991;52.430;10.586;2023-05-13T14:31:06;37.20;13.60
38183;DHT22;23991;52.430;10.586;2023-05-13T14:33:31;36.80;13.70
38183;DHT22;23991;52.430;10.586;2023-05-13T14:35:57;36.40;13.80
38183;DHT22;23991;52.430;10.586;2023-05-13T14:38:23;36.00;14.40
38183;DHT22;23991;52.430;10.586;2023-05-13T14:40:49;35.60;15.30
38183;DHT22;23991;52.430;10.586;2023-05-13T14:43:15;35.20;15.30
38183;DHT22;23991;52.430;10.586;2023-05-13T14:45:40;35.10;16.00
38183;DHT22;23991;52.430;10.586;2023-05-13T14:48:06;35.20;15.90
38183;DHT22;23991;52.430;10.586;2023-05-13T14:50:31;35.10;15.60
38183;DHT22;23991;52.430;10.586;2023-05-13T14:52:57;34.90;15.80
38183;DHT22;23991;52.430;10.586;2023-05-13T14:55:22;34.50;16.00
38183;DHT22;23991;52.430;10.586;2023-05-13T14:57:48;34.30;16.50
38183;DHT22;23991;52.430;10.586;2023-05-13T15:00:14;34.30;16.60
38183;DHT22;23991;52.430;10.586;2023-05-13T15:02:40;34.20;16.60
38183;DHT22;23991;52.430;10.586;2023-05-13T15:05:06;33.90;17.10
38183;DHT22;23991;52.430;10.586;2023-05-13T15:17:59;34.40;16.60
38183;DHT22;23991;52.430;10.586;2023-05-13T15:20:24;34.70;16.60
38183;DHT22;23991;52.430;10.586;2023-05-13T15:22:50;34.50;16.50
38183;DHT22;23991;52.430;10.586;2023-05-13T15:25:15;34.20;17.10
38183;DHT22;23991;52.430;10.586;2023-05-13T15:27:41;33.80;17.30
38183;DHT22;23991;52.430;10.586;2023-05-13T15:30:08;33.20;18.30
38183;DHT22;23991;52.430;10.586;2023-05-13T15:32:33;33.60;18.60
38183;DHT22;23991;52.430;10.586;2023-05-13T15:34:59;33.30;18.00
38183;DHT22;23991;52.430;10.586;2023-05-13T15:37:24;33.40;18.20
38183;DHT22;23991;52.430;10.586;2023-05-13T15:39:50;33.60;18.20
38183;DHT22;23991;52.430;10.586;2023-05-13T15:42:16;33.80;17.50
38183;DHT22;23991;52.430;10.586;2023-05-13T15:44:41;34.00;17.40
38183;DHT22;23991;52.430;10.586;2023-05-13T15:47:07;33.90;17.00
38183;DHT22;23991;52.430;10.586;2023-05-13T15:49:33;34.20;16.90
38183;DHT22;23991;52.430;10.586;2023-05-13T15:52:01;34.40;16.90
38183;DHT22;23991;52.430;10.586;2023-05-13T15:54:28;34.30;17.60
38183;DHT22;23991;52.430;10.586;2023-05-13T15:56:54;34.50;17.10
38183;DHT22;23991;52.430;10.586;2023-05-13T15:59:21;34.30;17.10
38183;DHT22;23991;52.430;10.586;2023-05-13T16:01:46;33.70;17.50